KYNG/YNG METAR and TAF weather

Enter ICAO airport designator
Station Type Date Time Source
KYNG METAR 2022/01/19 19:51 UTC NOAA

KYNG 191951Z 25013G21KT 10SM SCT027 BKN110 OVC220 06/M01 A2987 RMK AO2 SLP124 T00561006


Station Type Date Time Source
KYNG Decoded METAR 2022/01/19 19:51 UTC NOAA

YOUNGSTOWN-WARREN REG AIRPRT, OH, United States (KYNG) 41-15N 080-40W 360M
Jan 19, 2022 - 02:51 PM EST / 2022.01.19 1951 UTC
Wind: from the WSW (250 degrees) at 15 MPH (13 KT) gusting to 24 MPH (21 KT):0
Visibility: 10 mile(s):0
Sky conditions: overcast
Temperature: 42.1 F (5.6 C)
Dew Point: 30.9 F (-0.6 C)
Relative Humidity: 64%
Pressure (altimeter): 29.87 in. Hg (1011 hPa)
ob: KYNG 191951Z 25013G21KT 10SM SCT027 BKN110 OVC220 06/M01 A2987 RMK AO2 SLP124 T00561006
cycle: 20

Station Type Date Time Source
KYNG TAF 2022/01/19 18:28 UTC NOAA

TAF KYNG 191726Z 1918/2018 23010G20KT P6SM OVC025
FM192100 26007KT P6SM OVC015
FM200000 29009KT P6SM OVC060
FM200300 32009KT P6SM OVC020

Example: see airport list